sensor_id;sensor_type;location;lat;lon;timestamp;P1;durP1;ratioP1;P2;durP2;ratioP2
35990;SDS011;22064;42.672;23.282;2022-10-23T00:00:18;37.50;;;21.52;;
35990;SDS011;22064;42.672;23.282;2022-10-23T00:02:44;40.38;;;23.15;;
35990;SDS011;22064;42.672;23.282;2022-10-23T00:05:15;46.92;;;23.42;;
35990;SDS011;22064;42.672;23.282;2022-10-23T00:07:41;42.80;;;22.90;;
35990;SDS011;22064;42.672;23.282;2022-10-23T00:10:06;38.15;;;22.83;;
35990;SDS011;22064;42.672;23.282;2022-10-23T00:12:33;42.13;;;21.50;;
35990;SDS011;22064;42.672;23.282;2022-10-23T00:14:59;43.42;;;21.70;;
35990;SDS011;22064;42.672;23.282;2022-10-23T00:17:24;39.80;;;21.35;;
35990;SDS011;22064;42.672;23.282;2022-10-23T00:19:50;39.45;;;21.27;;
35990;SDS011;22064;42.672;23.282;2022-10-23T00:22:15;39.70;;;21.90;;
35990;SDS011;22064;42.672;23.282;2022-10-23T00:24:41;37.05;;;20.83;;
35990;SDS011;22064;42.672;23.282;2022-10-23T00:27:06;39.45;;;21.67;;
35990;SDS011;22064;42.672;23.282;2022-10-23T00:29:32;39.08;;;21.83;;
35990;SDS011;22064;42.672;23.282;2022-10-23T00:31:58;37.38;;;21.55;;
35990;SDS011;22064;42.672;23.282;2022-10-23T00:34:24;35.67;;;21.52;;
35990;SDS011;22064;42.672;23.282;2022-10-23T00:36:50;40.50;;;22.02;;
35990;SDS011;22064;42.672;23.282;2022-10-23T00:39:15;37.90;;;21.52;;
35990;SDS011;22064;42.672;23.282;2022-10-23T00:41:41;40.08;;;22.55;;
35990;SDS011;22064;42.672;23.282;2022-10-23T00:46:43;33.58;;;18.52;;
35990;SDS011;22064;42.672;23.282;2022-10-23T00:49:10;41.72;;;21.50;;
35990;SDS011;22064;42.672;23.282;2022-10-23T00:51:49;43.80;;;21.80;;
35990;SDS011;22064;42.672;23.282;2022-10-23T00:54:22;36.58;;;20.05;;
35990;SDS011;22064;42.672;23.282;2022-10-23T00:56:49;37.50;;;21.08;;
35990;SDS011;22064;42.672;23.282;2022-10-23T00:59:16;36.17;;;19.85;;
35990;SDS011;22064;42.672;23.282;2022-10-23T01:01:42;38.17;;;21.23;;
35990;SDS011;22064;42.672;23.282;2022-10-23T01:04:08;39.15;;;20.05;;
35990;SDS011;22064;42.672;23.282;2022-10-23T01:09:24;32.80;;;18.73;;
35990;SDS011;22064;42.672;23.282;2022-10-23T01:20:54;48.75;;;24.05;;
35990;SDS011;22064;42.672;23.282;2022-10-23T01:31:55;52.22;;;28.75;;
35990;SDS011;22064;42.672;23.282;2022-10-23T01:34:29;52.38;;;30.35;;
35990;SDS011;22064;42.672;23.282;2022-10-23T01:37:02;56.08;;;31.05;;
35990;SDS011;22064;42.672;23.282;2022-10-23T01:39:32;52.67;;;30.15;;
35990;SDS011;22064;42.672;23.282;2022-10-23T01:42:12;56.08;;;30.80;;
35990;SDS011;22064;42.672;23.282;2022-10-23T01:44:48;57.08;;;31.33;;
35990;SDS011;22064;42.672;23.282;2022-10-23T01:47:18;54.55;;;30.40;;
35990;SDS011;22064;42.672;23.282;2022-10-23T01:50:13;53.92;;;28.65;;
35990;SDS011;22064;42.672;23.282;2022-10-23T01:52:44;50.05;;;27.67;;
35990;SDS011;22064;42.672;23.282;2022-10-23T01:55:10;48.67;;;27.67;;
35990;SDS011;22064;42.672;23.282;2022-10-23T01:57:38;46.08;;;26.95;;
35990;SDS011;22064;42.672;23.282;2022-10-23T02:00:12;47.67;;;26.80;;
35990;SDS011;22064;42.672;23.282;2022-10-23T02:02:52;48.10;;;26.52;;
35990;SDS011;22064;42.672;23.282;2022-10-23T02:05:26;47.47;;;25.00;;
35990;SDS011;22064;42.672;23.282;2022-10-23T02:07:54;43.10;;;25.33;;
35990;SDS011;22064;42.672;23.282;2022-10-23T02:10:21;45.85;;;27.00;;
35990;SDS011;22064;42.672;23.282;2022-10-23T02:15:49;47.65;;;26.42;;
35990;SDS011;22064;42.672;23.282;2022-10-23T02:18:35;45.08;;;25.15;;
35990;SDS011;22064;42.672;23.282;2022-10-23T02:21:11;48.78;;;25.60;;
35990;SDS011;22064;42.672;23.282;2022-10-23T02:23:44;45.20;;;25.17;;
35990;SDS011;22064;42.672;23.282;2022-10-23T02:26:32;50.40;;;26.25;;
35990;SDS011;22064;42.672;23.282;2022-10-23T02:29:16;46.67;;;25.15;;
35990;SDS011;22064;42.672;23.282;2022-10-23T02:31:47;44.95;;;22.73;;
35990;SDS011;22064;42.672;23.282;2022-10-23T02:34:12;44.63;;;25.42;;
35990;SDS011;22064;42.672;23.282;2022-10-23T02:36:38;39.95;;;21.80;;
35990;SDS011;22064;42.672;23.282;2022-10-23T02:39:04;47.92;;;23.48;;
35990;SDS011;22064;42.672;23.282;2022-10-23T02:41:46;39.95;;;21.40;;
35990;SDS011;22064;42.672;23.282;2022-10-23T02:49:41;42.78;;;20.70;;
35990;SDS011;22064;42.672;23.282;2022-10-23T02:55:09;34.50;;;19.27;;
35990;SDS011;22064;42.672;23.282;2022-10-23T02:58:00;37.58;;;20.92;;
35990;SDS011;22064;42.672;23.282;2022-10-23T03:00:36;38.13;;;20.60;;
35990;SDS011;22064;42.672;23.282;2022-10-23T03:03:12;39.72;;;21.60;;
35990;SDS011;22064;42.672;23.282;2022-10-23T03:05:41;39.58;;;21.88;;
35990;SDS011;22064;42.672;23.282;2022-10-23T03:08:09;37.65;;;21.63;;
35990;SDS011;22064;42.672;23.282;2022-10-23T03:10:37;37.47;;;20.13;;
35990;SDS011;22064;42.672;23.282;2022-10-23T03:13:04;41.55;;;21.65;;
35990;SDS011;22064;42.672;23.282;2022-10-23T03:15:38;37.78;;;20.55;;
35990;SDS011;22064;42.672;23.282;2022-10-23T03:18:04;37.83;;;20.13;;
35990;SDS011;22064;42.672;23.282;2022-10-23T03:20:30;39.40;;;20.60;;
35990;SDS011;22064;42.672;23.282;2022-10-23T03:22:55;40.55;;;19.13;;
35990;SDS011;22064;42.672;23.282;2022-10-23T03:25:21;34.08;;;18.98;;
35990;SDS011;22064;42.672;23.282;2022-10-23T03:27:46;37.90;;;18.88;;
35990;SDS011;22064;42.672;23.282;2022-10-23T03:30:14;37.15;;;17.13;;
35990;SDS011;22064;42.672;23.282;2022-10-23T03:32:41;30.13;;;17.33;;
35990;SDS011;22064;42.672;23.282;2022-10-23T03:35:06;32.45;;;16.23;;
35990;SDS011;22064;42.672;23.282;2022-10-23T03:37:32;29.27;;;14.45;;
35990;SDS011;22064;42.672;23.282;2022-10-23T03:39:59;29.40;;;15.07;;
35990;SDS011;22064;42.672;23.282;2022-10-23T03:42:27;29.75;;;14.95;;
35990;SDS011;22064;42.672;23.282;2022-10-23T03:44:53;28.65;;;14.52;;
35990;SDS011;22064;42.672;23.282;2022-10-23T03:47:19;29.08;;;14.38;;
35990;SDS011;22064;42.672;23.282;2022-10-23T03:49:45;32.17;;;14.48;;
35990;SDS011;22064;42.672;23.282;2022-10-23T03:52:11;26.27;;;13.32;;
35990;SDS011;22064;42.672;23.282;2022-10-23T03:54:36;26.90;;;13.48;;
35990;SDS011;22064;42.672;23.282;2022-10-23T03:57:02;23.88;;;11.63;;
35990;SDS011;22064;42.672;23.282;2022-10-23T03:59:27;21.95;;;10.05;;
35990;SDS011;22064;42.672;23.282;2022-10-23T04:01:53;22.83;;;9.68;;
35990;SDS011;22064;42.672;23.282;2022-10-23T04:04:19;18.42;;;8.27;;
35990;SDS011;22064;42.672;23.282;2022-10-23T04:06:45;18.17;;;7.45;;
35990;SDS011;22064;42.672;23.282;2022-10-23T04:09:11;21.80;;;8.73;;
35990;SDS011;22064;42.672;23.282;2022-10-23T04:11:36;20.67;;;8.32;;
35990;SDS011;22064;42.672;23.282;2022-10-23T04:14:02;19.08;;;7.95;;
35990;SDS011;22064;42.672;23.282;2022-10-23T04:16:28;20.50;;;7.82;;
35990;SDS011;22064;42.672;23.282;2022-10-23T04:18:53;20.25;;;7.93;;
35990;SDS011;22064;42.672;23.282;2022-10-23T04:21:19;18.60;;;7.82;;
35990;SDS011;22064;42.672;23.282;2022-10-23T04:23:44;23.05;;;7.80;;
35990;SDS011;22064;42.672;23.282;2022-10-23T04:26:15;18.92;;;7.25;;
35990;SDS011;22064;42.672;23.282;2022-10-23T04:28:41;18.20;;;7.00;;
35990;SDS011;22064;42.672;23.282;2022-10-23T04:31:06;13.75;;;6.85;;
35990;SDS011;22064;42.672;23.282;2022-10-23T04:33:32;16.77;;;6.90;;
35990;SDS011;22064;42.672;23.282;2022-10-23T04:35:58;20.38;;;6.88;;
35990;SDS011;22064;42.672;23.282;2022-10-23T04:38:23;16.17;;;6.60;;
35990;SDS011;22064;42.672;23.282;2022-10-23T04:40:50;19.30;;;6.72;;
35990;SDS011;22064;42.672;23.282;2022-10-23T04:43:19;13.15;;;6.07;;
35990;SDS011;22064;42.672;23.282;2022-10-23T04:45:47;16.63;;;5.93;;
35990;SDS011;22064;42.672;23.282;2022-10-23T04:48:12;17.48;;;6.30;;
35990;SDS011;22064;42.672;23.282;2022-10-23T04:51:04;14.00;;;5.63;;
35990;SDS011;22064;42.672;23.282;2022-10-23T04:53:50;14.80;;;6.18;;
35990;SDS011;22064;42.672;23.282;2022-10-23T04:56:36;15.52;;;5.80;;
35990;SDS011;22064;42.672;23.282;2022-10-23T05:01:33;13.35;;;5.30;;
35990;SDS011;22064;42.672;23.282;2022-10-23T05:04:02;14.80;;;5.75;;
35990;SDS011;22064;42.672;23.282;2022-10-23T05:06:30;12.63;;;5.63;;
35990;SDS011;22064;42.672;23.282;2022-10-23T05:09:18;14.50;;;5.15;;
35990;SDS011;22064;42.672;23.282;2022-10-23T05:12:13;15.18;;;5.60;;
35990;SDS011;22064;42.672;23.282;2022-10-23T05:14:39;14.35;;;5.68;;
35990;SDS011;22064;42.672;23.282;2022-10-23T05:17:10;16.83;;;5.82;;
35990;SDS011;22064;42.672;23.282;2022-10-23T05:19:44;16.98;;;6.50;;
35990;SDS011;22064;42.672;23.282;2022-10-23T05:22:15;16.80;;;6.07;;
35990;SDS011;22064;42.672;23.282;2022-10-23T05:24:49;14.98;;;5.82;;
35990;SDS011;22064;42.672;23.282;2022-10-23T05:27:20;14.43;;;5.80;;
35990;SDS011;22064;42.672;23.282;2022-10-23T05:29:46;12.10;;;5.80;;
35990;SDS011;22064;42.672;23.282;2022-10-23T05:32:12;17.30;;;6.63;;
35990;SDS011;22064;42.672;23.282;2022-10-23T05:34:42;12.70;;;5.85;;
35990;SDS011;22064;42.672;23.282;2022-10-23T05:37:09;13.80;;;6.10;;
35990;SDS011;22064;42.672;23.282;2022-10-23T05:39:39;16.45;;;6.65;;
35990;SDS011;22064;42.672;23.282;2022-10-23T05:42:10;15.80;;;6.22;;
35990;SDS011;22064;42.672;23.282;2022-10-23T05:44:36;19.42;;;6.72;;
35990;SDS011;22064;42.672;23.282;2022-10-23T05:47:16;14.77;;;6.40;;
35990;SDS011;22064;42.672;23.282;2022-10-23T05:50:17;15.32;;;6.90;;
35990;SDS011;22064;42.672;23.282;2022-10-23T05:53:03;20.48;;;6.57;;
35990;SDS011;22064;42.672;23.282;2022-10-23T05:55:36;17.23;;;6.45;;
35990;SDS011;22064;42.672;23.282;2022-10-23T05:58:27;21.27;;;6.88;;
35990;SDS011;22064;42.672;23.282;2022-10-23T06:01:07;17.63;;;6.47;;
35990;SDS011;22064;42.672;23.282;2022-10-23T06:03:50;15.32;;;6.35;;
35990;SDS011;22064;42.672;23.282;2022-10-23T06:06:16;14.05;;;6.40;;
35990;SDS011;22064;42.672;23.282;2022-10-23T06:08:45;17.80;;;6.95;;
35990;SDS011;22064;42.672;23.282;2022-10-23T06:11:12;14.82;;;6.53;;
35990;SDS011;22064;42.672;23.282;2022-10-23T06:13:43;17.33;;;7.75;;
35990;SDS011;22064;42.672;23.282;2022-10-23T06:18:40;13.13;;;6.30;;
35990;SDS011;22064;42.672;23.282;2022-10-23T06:21:11;14.60;;;6.20;;
35990;SDS011;22064;42.672;23.282;2022-10-23T06:23:38;13.23;;;6.88;;
35990;SDS011;22064;42.672;23.282;2022-10-23T06:26:27;15.35;;;6.22;;
35990;SDS011;22064;42.672;23.282;2022-10-23T06:29:02;17.95;;;7.00;;
35990;SDS011;22064;42.672;23.282;2022-10-23T06:31:28;15.43;;;6.18;;
35990;SDS011;22064;42.672;23.282;2022-10-23T06:33:56;15.13;;;6.55;;
35990;SDS011;22064;42.672;23.282;2022-10-23T06:36:23;15.20;;;6.28;;
35990;SDS011;22064;42.672;23.282;2022-10-23T06:38:51;14.05;;;6.32;;
35990;SDS011;22064;42.672;23.282;2022-10-23T06:41:18;15.43;;;5.65;;
35990;SDS011;22064;42.672;23.282;2022-10-23T06:43:51;12.55;;;6.15;;
35990;SDS011;22064;42.672;23.282;2022-10-23T06:46:25;13.15;;;6.07;;
35990;SDS011;22064;42.672;23.282;2022-10-23T06:49:01;15.90;;;6.63;;
35990;SDS011;22064;42.672;23.282;2022-10-23T06:53:56;13.88;;;5.88;;
35990;SDS011;22064;42.672;23.282;2022-10-23T06:56:41;13.02;;;6.60;;
35990;SDS011;22064;42.672;23.282;2022-10-23T06:59:08;13.07;;;6.68;;
35990;SDS011;22064;42.672;23.282;2022-10-23T07:01:34;19.73;;;6.40;;
35990;SDS011;22064;42.672;23.282;2022-10-23T07:04:00;12.05;;;5.95;;
35990;SDS011;22064;42.672;23.282;2022-10-23T07:06:26;12.55;;;6.07;;
35990;SDS011;22064;42.672;23.282;2022-10-23T07:08:52;14.45;;;6.10;;
35990;SDS011;22064;42.672;23.282;2022-10-23T07:11:46;13.98;;;6.32;;
35990;SDS011;22064;42.672;23.282;2022-10-23T07:14:12;13.63;;;6.72;;
35990;SDS011;22064;42.672;23.282;2022-10-23T07:16:37;15.35;;;6.20;;
35990;SDS011;22064;42.672;23.282;2022-10-23T07:19:03;18.88;;;7.10;;
35990;SDS011;22064;42.672;23.282;2022-10-23T07:21:51;13.20;;;6.10;;
35990;SDS011;22064;42.672;23.282;2022-10-23T07:24:37;16.00;;;6.57;;
35990;SDS011;22064;42.672;23.282;2022-10-23T07:27:14;13.85;;;6.40;;
35990;SDS011;22064;42.672;23.282;2022-10-23T07:29:39;16.02;;;6.82;;
35990;SDS011;22064;42.672;23.282;2022-10-23T07:32:06;13.73;;;5.93;;
35990;SDS011;22064;42.672;23.282;2022-10-23T07:34:51;13.52;;;6.28;;
35990;SDS011;22064;42.672;23.282;2022-10-23T07:37:28;12.73;;;5.85;;
35990;SDS011;22064;42.672;23.282;2022-10-23T07:39:55;13.48;;;6.43;;
35990;SDS011;22064;42.672;23.282;2022-10-23T07:42:22;14.73;;;6.05;;
35990;SDS011;22064;42.672;23.282;2022-10-23T07:44:48;12.35;;;6.10;;
35990;SDS011;22064;42.672;23.282;2022-10-23T07:47:14;11.23;;;5.70;;
35990;SDS011;22064;42.672;23.282;2022-10-23T07:49:43;16.80;;;6.50;;
35990;SDS011;22064;42.672;23.282;2022-10-23T07:52:08;15.93;;;6.20;;
35990;SDS011;22064;42.672;23.282;2022-10-23T07:54:54;16.83;;;6.07;;
35990;SDS011;22064;42.672;23.282;2022-10-23T07:57:20;13.07;;;5.68;;
35990;SDS011;22064;42.672;23.282;2022-10-23T07:59:53;11.50;;;5.70;;
35990;SDS011;22064;42.672;23.282;2022-10-23T08:02:21;11.80;;;5.35;;
35990;SDS011;22064;42.672;23.282;2022-10-23T08:04:48;11.57;;;5.22;;
35990;SDS011;22064;42.672;23.282;2022-10-23T08:07:25;15.07;;;6.00;;
35990;SDS011;22064;42.672;23.282;2022-10-23T08:09:54;10.90;;;4.80;;
35990;SDS011;22064;42.672;23.282;2022-10-23T08:12:19;11.65;;;5.78;;
35990;SDS011;22064;42.672;23.282;2022-10-23T08:14:45;10.40;;;4.88;;
35990;SDS011;22064;42.672;23.282;2022-10-23T08:17:11;14.18;;;5.90;;
35990;SDS011;22064;42.672;23.282;2022-10-23T08:19:54;14.20;;;5.45;;
35990;SDS011;22064;42.672;23.282;2022-10-23T08:22:22;11.35;;;5.70;;
35990;SDS011;22064;42.672;23.282;2022-10-23T08:24:48;11.00;;;5.75;;
35990;SDS011;22064;42.672;23.282;2022-10-23T08:27:14;12.32;;;5.22;;
35990;SDS011;22064;42.672;23.282;2022-10-23T08:29:43;12.82;;;5.82;;
35990;SDS011;22064;42.672;23.282;2022-10-23T08:32:09;15.13;;;5.80;;
35990;SDS011;22064;42.672;23.282;2022-10-23T08:34:53;13.20;;;6.10;;
35990;SDS011;22064;42.672;23.282;2022-10-23T08:37:21;17.10;;;6.13;;
35990;SDS011;22064;42.672;23.282;2022-10-23T08:39:47;12.10;;;5.50;;
35990;SDS011;22064;42.672;23.282;2022-10-23T08:42:20;10.68;;;5.28;;
35990;SDS011;22064;42.672;23.282;2022-10-23T08:44:51;9.18;;;5.53;;
35990;SDS011;22064;42.672;23.282;2022-10-23T08:47:29;12.68;;;5.13;;
35990;SDS011;22064;42.672;23.282;2022-10-23T08:50:33;11.55;;;5.15;;
35990;SDS011;22064;42.672;23.282;2022-10-23T08:56:19;11.05;;;4.65;;
35990;SDS011;22064;42.672;23.282;2022-10-23T09:04:11;14.43;;;5.25;;
35990;SDS011;22064;42.672;23.282;2022-10-23T09:06:40;8.98;;;4.75;;
35990;SDS011;22064;42.672;23.282;2022-10-23T09:09:18;8.82;;;4.55;;
35990;SDS011;22064;42.672;23.282;2022-10-23T09:12:04;10.25;;;4.75;;
35990;SDS011;22064;42.672;23.282;2022-10-23T09:17:27;11.60;;;4.30;;
35990;SDS011;22064;42.672;23.282;2022-10-23T09:19:59;6.45;;;4.00;;
35990;SDS011;22064;42.672;23.282;2022-10-23T09:22:44;11.35;;;4.80;;
35990;SDS011;22064;42.672;23.282;2022-10-23T09:25:15;9.73;;;4.55;;
35990;SDS011;22064;42.672;23.282;2022-10-23T09:27:47;10.02;;;4.55;;
35990;SDS011;22064;42.672;23.282;2022-10-23T09:30:27;7.55;;;4.30;;
35990;SDS011;22064;42.672;23.282;2022-10-23T09:32:52;8.45;;;3.95;;
35990;SDS011;22064;42.672;23.282;2022-10-23T09:35:19;7.90;;;4.22;;
35990;SDS011;22064;42.672;23.282;2022-10-23T09:37:47;13.35;;;4.43;;
35990;SDS011;22064;42.672;23.282;2022-10-23T09:43:02;8.85;;;3.60;;
35990;SDS011;22064;42.672;23.282;2022-10-23T09:45:38;7.13;;;3.55;;
35990;SDS011;22064;42.672;23.282;2022-10-23T09:48:17;10.38;;;3.65;;
35990;SDS011;22064;42.672;23.282;2022-10-23T09:53:14;6.95;;;3.50;;
35990;SDS011;22064;42.672;23.282;2022-10-23T09:55:49;6.72;;;3.50;;
35990;SDS011;22064;42.672;23.282;2022-10-23T09:58:18;7.22;;;3.63;;
35990;SDS011;22064;42.672;23.282;2022-10-23T10:00:46;5.53;;;3.00;;
35990;SDS011;22064;42.672;23.282;2022-10-23T10:03:19;8.50;;;3.47;;
35990;SDS011;22064;42.672;23.282;2022-10-23T10:06:00;9.27;;;2.95;;
35990;SDS011;22064;42.672;23.282;2022-10-23T10:08:30;6.70;;;3.22;;
35990;SDS011;22064;42.672;23.282;2022-10-23T10:11:11;9.80;;;3.47;;
35990;SDS011;22064;42.672;23.282;2022-10-23T10:19:12;4.80;;;2.80;;
35990;SDS011;22064;42.672;23.282;2022-10-23T10:24:51;7.72;;;2.90;;
35990;SDS011;22064;42.672;23.282;2022-10-23T10:32:47;5.70;;;3.00;;
35990;SDS011;22064;42.672;23.282;2022-10-23T10:43:18;3.60;;;2.45;;
35990;SDS011;22064;42.672;23.282;2022-10-23T10:51:59;5.38;;;2.92;;
35990;SDS011;22064;42.672;23.282;2022-10-23T10:57:03;6.20;;;2.88;;
35990;SDS011;22064;42.672;23.282;2022-10-23T10:59:38;5.22;;;2.85;;
35990;SDS011;22064;42.672;23.282;2022-10-23T11:05:04;5.63;;;2.75;;
35990;SDS011;22064;42.672;23.282;2022-10-23T11:07:36;3.85;;;2.50;;
35990;SDS011;22064;42.672;23.282;2022-10-23T11:10:12;5.45;;;2.40;;
35990;SDS011;22064;42.672;23.282;2022-10-23T11:12:41;4.90;;;2.80;;
35990;SDS011;22064;42.672;23.282;2022-10-23T11:15:13;4.40;;;2.67;;
35990;SDS011;22064;42.672;23.282;2022-10-23T11:17:42;4.82;;;2.70;;
35990;SDS011;22064;42.672;23.282;2022-10-23T11:31:10;7.68;;;3.10;;
35990;SDS011;22064;42.672;23.282;2022-10-23T11:36:49;4.68;;;2.78;;
35990;SDS011;22064;42.672;23.282;2022-10-23T11:39:30;8.10;;;3.58;;
35990;SDS011;22064;42.672;23.282;2022-10-23T11:47:02;5.70;;;2.75;;
35990;SDS011;22064;42.672;23.282;2022-10-23T11:49:49;3.17;;;2.88;;
35990;SDS011;22064;42.672;23.282;2022-10-23T11:52:22;6.40;;;3.00;;
35990;SDS011;22064;42.672;23.282;2022-10-23T11:54:59;5.38;;;2.60;;
35990;SDS011;22064;42.672;23.282;2022-10-23T11:57:26;4.55;;;2.75;;
35990;SDS011;22064;42.672;23.282;2022-10-23T11:59:52;9.25;;;2.95;;
35990;SDS011;22064;42.672;23.282;2022-10-23T12:02:26;5.22;;;3.13;;
35990;SDS011;22064;42.672;23.282;2022-10-23T12:04:53;4.50;;;2.67;;
35990;SDS011;22064;42.672;23.282;2022-10-23T12:09:51;5.43;;;2.70;;
35990;SDS011;22064;42.672;23.282;2022-10-23T12:12:31;4.80;;;2.70;;
35990;SDS011;22064;42.672;23.282;2022-10-23T12:15:32;3.60;;;2.70;;
35990;SDS011;22064;42.672;23.282;2022-10-23T12:17:55;5.53;;;2.83;;
35990;SDS011;22064;42.672;23.282;2022-10-23T12:20:43;5.03;;;2.70;;
35990;SDS011;22064;42.672;23.282;2022-10-23T12:34:20;4.65;;;2.65;;
35990;SDS011;22064;42.672;23.282;2022-10-23T12:37:07;5.90;;;2.70;;
35990;SDS011;22064;42.672;23.282;2022-10-23T12:39:37;4.53;;;2.60;;
35990;SDS011;22064;42.672;23.282;2022-10-23T12:42:08;7.10;;;3.30;;
35990;SDS011;22064;42.672;23.282;2022-10-23T12:44:59;6.25;;;2.75;;
35990;SDS011;22064;42.672;23.282;2022-10-23T12:47:27;4.07;;;2.70;;
35990;SDS011;22064;42.672;23.282;2022-10-23T12:49:54;4.65;;;2.70;;
35990;SDS011;22064;42.672;23.282;2022-10-23T12:52:20;5.93;;;2.70;;
35990;SDS011;22064;42.672;23.282;2022-10-23T12:54:48;3.55;;;2.50;;
35990;SDS011;22064;42.672;23.282;2022-10-23T12:59:46;4.97;;;2.45;;
35990;SDS011;22064;42.672;23.282;2022-10-23T13:02:13;3.47;;;2.40;;
35990;SDS011;22064;42.672;23.282;2022-10-23T13:04:59;5.63;;;2.40;;
35990;SDS011;22064;42.672;23.282;2022-10-23T13:07:31;3.33;;;2.28;;
35990;SDS011;22064;42.672;23.282;2022-10-23T13:10:00;3.47;;;2.38;;
35990;SDS011;22064;42.672;23.282;2022-10-23T13:12:39;3.65;;;2.22;;
35990;SDS011;22064;42.672;23.282;2022-10-23T13:20:33;8.15;;;2.78;;
35990;SDS011;22064;42.672;23.282;2022-10-23T13:23:15;7.28;;;2.60;;
35990;SDS011;22064;42.672;23.282;2022-10-23T13:25:54;6.53;;;2.40;;
35990;SDS011;22064;42.672;23.282;2022-10-23T13:28:25;7.15;;;2.38;;
35990;SDS011;22064;42.672;23.282;2022-10-23T13:30:58;5.68;;;2.10;;
35990;SDS011;22064;42.672;23.282;2022-10-23T13:33:37;6.00;;;2.85;;
35990;SDS011;22064;42.672;23.282;2022-10-23T13:41:25;3.60;;;2.45;;
35990;SDS011;22064;42.672;23.282;2022-10-23T13:43:52;6.28;;;2.40;;
35990;SDS011;22064;42.672;23.282;2022-10-23T13:46:19;3.13;;;2.40;;
35990;SDS011;22064;42.672;23.282;2022-10-23T13:48:47;5.25;;;2.70;;
35990;SDS011;22064;42.672;23.282;2022-10-23T13:51:23;4.70;;;2.60;;
35990;SDS011;22064;42.672;23.282;2022-10-23T13:53:52;5.80;;;2.40;;
35990;SDS011;22064;42.672;23.282;2022-10-23T13:56:19;5.18;;;2.38;;
35990;SDS011;22064;42.672;23.282;2022-10-23T13:58:46;5.32;;;2.20;;
35990;SDS011;22064;42.672;23.282;2022-10-23T14:01:18;4.90;;;2.40;;
35990;SDS011;22064;42.672;23.282;2022-10-23T14:03:50;6.75;;;3.17;;
35990;SDS011;22064;42.672;23.282;2022-10-23T14:06:17;6.70;;;2.85;;
35990;SDS011;22064;42.672;23.282;2022-10-23T14:08:43;3.50;;;2.40;;
35990;SDS011;22064;42.672;23.282;2022-10-23T14:11:09;4.47;;;2.40;;
35990;SDS011;22064;42.672;23.282;2022-10-23T14:13:36;3.58;;;2.45;;
35990;SDS011;22064;42.672;23.282;2022-10-23T14:16:01;4.95;;;2.50;;
35990;SDS011;22064;42.672;23.282;2022-10-23T14:18:27;8.95;;;2.67;;
35990;SDS011;22064;42.672;23.282;2022-10-23T14:20:53;4.90;;;2.65;;
35990;SDS011;22064;42.672;23.282;2022-10-23T14:23:18;5.88;;;2.67;;
35990;SDS011;22064;42.672;23.282;2022-10-23T14:25:44;4.18;;;2.78;;
35990;SDS011;22064;42.672;23.282;2022-10-23T14:28:10;3.22;;;2.55;;
35990;SDS011;22064;42.672;23.282;2022-10-23T14:30:36;3.20;;;2.42;;
35990;SDS011;22064;42.672;23.282;2022-10-23T14:33:02;4.50;;;2.45;;
35990;SDS011;22064;42.672;23.282;2022-10-23T14:35:28;4.47;;;2.45;;
35990;SDS011;22064;42.672;23.282;2022-10-23T14:37:54;5.22;;;2.60;;
35990;SDS011;22064;42.672;23.282;2022-10-23T14:40:20;4.03;;;2.30;;
35990;SDS011;22064;42.672;23.282;2022-10-23T14:42:45;6.85;;;2.75;;
35990;SDS011;22064;42.672;23.282;2022-10-23T14:45:11;5.65;;;2.88;;
35990;SDS011;22064;42.672;23.282;2022-10-23T14:47:36;5.47;;;2.78;;
35990;SDS011;22064;42.672;23.282;2022-10-23T14:50:02;9.38;;;2.65;;
35990;SDS011;22064;42.672;23.282;2022-10-23T14:52:28;5.43;;;2.88;;
35990;SDS011;22064;42.672;23.282;2022-10-23T14:54:54;5.82;;;2.70;;
35990;SDS011;22064;42.672;23.282;2022-10-23T14:57:20;6.10;;;2.90;;
35990;SDS011;22064;42.672;23.282;2022-10-23T14:59:47;5.00;;;2.50;;
35990;SDS011;22064;42.672;23.282;2022-10-23T15:02:13;5.95;;;2.78;;
35990;SDS011;22064;42.672;23.282;2022-10-23T15:04:40;4.28;;;2.72;;
35990;SDS011;22064;42.672;23.282;2022-10-23T15:07:06;5.95;;;2.90;;
35990;SDS011;22064;42.672;23.282;2022-10-23T15:09:32;4.63;;;2.60;;
35990;SDS011;22064;42.672;23.282;2022-10-23T15:12:00;6.20;;;3.13;;
35990;SDS011;22064;42.672;23.282;2022-10-23T15:14:27;6.93;;;2.72;;
35990;SDS011;22064;42.672;23.282;2022-10-23T15:16:52;9.70;;;3.20;;
35990;SDS011;22064;42.672;23.282;2022-10-23T15:19:18;6.65;;;2.70;;
35990;SDS011;22064;42.672;23.282;2022-10-23T15:21:44;8.88;;;3.22;;
35990;SDS011;22064;42.672;23.282;2022-10-23T15:24:10;8.25;;;3.50;;
35990;SDS011;22064;42.672;23.282;2022-10-23T15:26:36;9.82;;;3.15;;
35990;SDS011;22064;42.672;23.282;2022-10-23T15:29:02;7.32;;;3.70;;
35990;SDS011;22064;42.672;23.282;2022-10-23T15:33:57;8.05;;;4.00;;
35990;SDS011;22064;42.672;23.282;2022-10-23T15:38:49;10.80;;;3.63;;
35990;SDS011;22064;42.672;23.282;2022-10-23T15:41:16;6.63;;;3.33;;
35990;SDS011;22064;42.672;23.282;2022-10-23T15:43:46;8.80;;;3.47;;
35990;SDS011;22064;42.672;23.282;2022-10-23T15:46:11;11.73;;;4.03;;
35990;SDS011;22064;42.672;23.282;2022-10-23T15:48:37;10.00;;;3.97;;
35990;SDS011;22064;42.672;23.282;2022-10-23T15:51:03;5.53;;;3.08;;
35990;SDS011;22064;42.672;23.282;2022-10-23T15:53:28;9.15;;;3.78;;
35990;SDS011;22064;42.672;23.282;2022-10-23T15:55:54;9.13;;;4.00;;
35990;SDS011;22064;42.672;23.282;2022-10-23T15:58:23;5.85;;;3.65;;
35990;SDS011;22064;42.672;23.282;2022-10-23T16:00:49;5.68;;;3.38;;
35990;SDS011;22064;42.672;23.282;2022-10-23T16:03:14;5.22;;;3.10;;
35990;SDS011;22064;42.672;23.282;2022-10-23T16:05:40;7.80;;;3.40;;
35990;SDS011;22064;42.672;23.282;2022-10-23T16:08:06;9.13;;;3.60;;
35990;SDS011;22064;42.672;23.282;2022-10-23T16:10:31;11.30;;;4.55;;
35990;SDS011;22064;42.672;23.282;2022-10-23T16:12:57;15.07;;;5.57;;
35990;SDS011;22064;42.672;23.282;2022-10-23T16:15:22;11.18;;;5.60;;
35990;SDS011;22064;42.672;23.282;2022-10-23T16:17:48;13.50;;;5.70;;
35990;SDS011;22064;42.672;23.282;2022-10-23T16:20:14;14.57;;;5.63;;
35990;SDS011;22064;42.672;23.282;2022-10-23T16:22:40;10.23;;;5.65;;
35990;SDS011;22064;42.672;23.282;2022-10-23T16:25:05;15.00;;;5.47;;
35990;SDS011;22064;42.672;23.282;2022-10-23T16:27:31;11.82;;;4.70;;
35990;SDS011;22064;42.672;23.282;2022-10-23T16:29:57;10.43;;;4.47;;
35990;SDS011;22064;42.672;23.282;2022-10-23T16:32:22;10.43;;;4.20;;
35990;SDS011;22064;42.672;23.282;2022-10-23T16:34:48;6.65;;;3.50;;
35990;SDS011;22064;42.672;23.282;2022-10-23T16:37:14;7.68;;;4.00;;
35990;SDS011;22064;42.672;23.282;2022-10-23T16:39:52;9.45;;;4.47;;
35990;SDS011;22064;42.672;23.282;2022-10-23T16:42:36;8.15;;;3.50;;
35990;SDS011;22064;42.672;23.282;2022-10-23T16:45:21;12.90;;;4.15;;
35990;SDS011;22064;42.672;23.282;2022-10-23T16:47:46;10.32;;;4.07;;
35990;SDS011;22064;42.672;23.282;2022-10-23T16:50:12;6.80;;;4.22;;
35990;SDS011;22064;42.672;23.282;2022-10-23T16:52:39;7.70;;;3.85;;
35990;SDS011;22064;42.672;23.282;2022-10-23T16:55:05;8.57;;;4.18;;
35990;SDS011;22064;42.672;23.282;2022-10-23T16:57:33;10.05;;;4.82;;
35990;SDS011;22064;42.672;23.282;2022-10-23T16:59:59;7.43;;;3.95;;
35990;SDS011;22064;42.672;23.282;2022-10-23T17:02:24;9.27;;;4.28;;
35990;SDS011;22064;42.672;23.282;2022-10-23T17:04:50;8.68;;;4.07;;